sensor_id;sensor_type;location;lat;lon;timestamp;temperature;humidity
72440;DHT22;60446;50.752;4.352;2024-03-07T00:01:15;2.80;99.90
72440;DHT22;60446;50.752;4.352;2024-03-07T00:03:43;2.80;99.90
72440;DHT22;60446;50.752;4.352;2024-03-07T00:06:11;2.90;99.90
72440;DHT22;60446;50.752;4.352;2024-03-07T00:08:39;3.00;99.90
72440;DHT22;60446;50.752;4.352;2024-03-07T00:11:06;3.00;99.90
72440;DHT22;60446;50.752;4.352;2024-03-07T00:13:34;2.90;99.90
72440;DHT22;60446;50.752;4.352;2024-03-07T00:16:03;2.90;99.90
72440;DHT22;60446;50.752;4.352;2024-03-07T00:18:33;2.80;99.90
72440;DHT22;60446;50.752;4.352;2024-03-07T00:21:01;2.80;99.90
72440;DHT22;60446;50.752;4.352;2024-03-07T00:23:32;2.80;99.90
72440;DHT22;60446;50.752;4.352;2024-03-07T00:26:00;2.70;99.90
72440;DHT22;60446;50.752;4.352;2024-03-07T00:28:28;2.70;99.90
72440;DHT22;60446;50.752;4.352;2024-03-07T00:30:59;2.70;99.90
72440;DHT22;60446;50.752;4.352;2024-03-07T00:33:26;2.70;99.90
72440;DHT22;60446;50.752;4.352;2024-03-07T00:36:14;2.70;99.90
72440;DHT22;60446;50.752;4.352;2024-03-07T00:38:41;2.60;99.90
72440;DHT22;60446;50.752;4.352;2024-03-07T00:41:09;2.50;99.90
72440;DHT22;60446;50.752;4.352;2024-03-07T00:43:36;2.50;99.90
72440;DHT22;60446;50.752;4.352;2024-03-07T00:46:04;2.40;99.90
72440;DHT22;60446;50.752;4.352;2024-03-07T00:48:33;2.50;99.90
72440;DHT22;60446;50.752;4.352;2024-03-07T00:51:00;2.50;99.90
72440;DHT22;60446;50.752;4.352;2024-03-07T00:53:27;2.50;99.90
72440;DHT22;60446;50.752;4.352;2024-03-07T00:55:55;2.50;99.90
72440;DHT22;60446;50.752;4.352;2024-03-07T00:58:22;2.50;99.90
72440;DHT22;60446;50.752;4.352;2024-03-07T01:00:49;2.50;99.90
72440;DHT22;60446;50.752;4.352;2024-03-07T01:03:17;2.50;99.90
72440;DHT22;60446;50.752;4.352;2024-03-07T01:05:44;2.60;99.90
72440;DHT22;60446;50.752;4.352;2024-03-07T01:08:11;2.60;99.90
72440;DHT22;60446;50.752;4.352;2024-03-07T01:10:39;2.60;99.90
72440;DHT22;60446;50.752;4.352;2024-03-07T01:13:06;2.60;99.90
72440;DHT22;60446;50.752;4.352;2024-03-07T01:15:35;2.70;99.90
72440;DHT22;60446;50.752;4.352;2024-03-07T01:18:03;2.70;99.90
72440;DHT22;60446;50.752;4.352;2024-03-07T01:20:31;2.70;99.90
72440;DHT22;60446;50.752;4.352;2024-03-07T01:22:58;2.70;99.90
72440;DHT22;60446;50.752;4.352;2024-03-07T01:25:25;2.70;99.90
72440;DHT22;60446;50.752;4.352;2024-03-07T01:27:53;2.70;99.90
72440;DHT22;60446;50.752;4.352;2024-03-07T01:30:22;2.70;99.90
72440;DHT22;60446;50.752;4.352;2024-03-07T01:32:54;2.80;99.90
72440;DHT22;60446;50.752;4.352;2024-03-07T01:35:21;2.70;99.90
72440;DHT22;60446;50.752;4.352;2024-03-07T01:37:49;2.80;99.90
72440;DHT22;60446;50.752;4.352;2024-03-07T01:40:18;2.70;99.90
72440;DHT22;60446;50.752;4.352;2024-03-07T01:42:48;2.80;99.90
72440;DHT22;60446;50.752;4.352;2024-03-07T01:45:17;2.80;99.90
72440;DHT22;60446;50.752;4.352;2024-03-07T01:47:47;2.90;99.90
72440;DHT22;60446;50.752;4.352;2024-03-07T01:50:15;2.80;99.90
72440;DHT22;60446;50.752;4.352;2024-03-07T01:52:44;2.80;99.90
72440;DHT22;60446;50.752;4.352;2024-03-07T01:55:12;2.80;99.90
72440;DHT22;60446;50.752;4.352;2024-03-07T01:57:41;2.80;99.90
72440;DHT22;60446;50.752;4.352;2024-03-07T02:00:09;2.80;99.90
72440;DHT22;60446;50.752;4.352;2024-03-07T02:02:36;2.80;99.90
72440;DHT22;60446;50.752;4.352;2024-03-07T02:05:05;2.80;99.90
72440;DHT22;60446;50.752;4.352;2024-03-07T02:07:33;2.80;99.90
72440;DHT22;60446;50.752;4.352;2024-03-07T02:10:04;2.80;99.90
72440;DHT22;60446;50.752;4.352;2024-03-07T02:12:32;2.90;99.90
72440;DHT22;60446;50.752;4.352;2024-03-07T02:15:00;2.90;99.90
72440;DHT22;60446;50.752;4.352;2024-03-07T02:17:27;2.90;99.90
72440;DHT22;60446;50.752;4.352;2024-03-07T02:19:54;2.90;99.90
72440;DHT22;60446;50.752;4.352;2024-03-07T02:22:22;2.90;99.90
72440;DHT22;60446;50.752;4.352;2024-03-07T02:24:49;2.90;99.90
72440;DHT22;60446;50.752;4.352;2024-03-07T02:27:16;2.90;99.90
72440;DHT22;60446;50.752;4.352;2024-03-07T02:29:44;2.90;99.90
72440;DHT22;60446;50.752;4.352;2024-03-07T02:32:11;3.00;99.90
72440;DHT22;60446;50.752;4.352;2024-03-07T02:34:39;2.90;99.90
72440;DHT22;60446;50.752;4.352;2024-03-07T02:37:06;2.90;99.90
72440;DHT22;60446;50.752;4.352;2024-03-07T02:39:39;2.90;99.90
72440;DHT22;60446;50.752;4.352;2024-03-07T02:42:06;3.00;99.90
72440;DHT22;60446;50.752;4.352;2024-03-07T02:44:33;2.90;99.90
72440;DHT22;60446;50.752;4.352;2024-03-07T02:47:01;2.90;99.90
72440;DHT22;60446;50.752;4.352;2024-03-07T02:49:30;2.90;99.90
72440;DHT22;60446;50.752;4.352;2024-03-07T02:51:58;2.90;99.90
72440;DHT22;60446;50.752;4.352;2024-03-07T02:54:25;2.90;99.90
72440;DHT22;60446;50.752;4.352;2024-03-07T02:56:52;2.90;99.90
72440;DHT22;60446;50.752;4.352;2024-03-07T02:59:19;2.90;99.90
72440;DHT22;60446;50.752;4.352;2024-03-07T03:01:49;2.90;99.90
72440;DHT22;60446;50.752;4.352;2024-03-07T03:04:17;2.90;99.90
72440;DHT22;60446;50.752;4.352;2024-03-07T03:06:44;2.90;99.90
72440;DHT22;60446;50.752;4.352;2024-03-07T03:09:13;2.90;99.90
72440;DHT22;60446;50.752;4.352;2024-03-07T03:11:47;2.90;99.90
72440;DHT22;60446;50.752;4.352;2024-03-07T03:14:14;2.90;99.90
72440;DHT22;60446;50.752;4.352;2024-03-07T03:16:43;3.00;99.90
72440;DHT22;60446;50.752;4.352;2024-03-07T03:19:15;3.00;99.90
72440;DHT22;60446;50.752;4.352;2024-03-07T03:21:42;2.90;99.90
72440;DHT22;60446;50.752;4.352;2024-03-07T03:24:09;3.00;99.90
72440;DHT22;60446;50.752;4.352;2024-03-07T03:26:37;3.00;99.90
72440;DHT22;60446;50.752;4.352;2024-03-07T03:29:09;3.00;99.90
72440;DHT22;60446;50.752;4.352;2024-03-07T03:31:38;2.90;99.90
72440;DHT22;60446;50.752;4.352;2024-03-07T03:34:06;2.90;99.90
72440;DHT22;60446;50.752;4.352;2024-03-07T03:36:33;2.80;99.90
72440;DHT22;60446;50.752;4.352;2024-03-07T03:39:00;2.90;99.90
72440;DHT22;60446;50.752;4.352;2024-03-07T03:41:29;2.90;99.90
72440;DHT22;60446;50.752;4.352;2024-03-07T03:43:57;2.80;99.90
72440;DHT22;60446;50.752;4.352;2024-03-07T03:46:25;2.80;99.90
72440;DHT22;60446;50.752;4.352;2024-03-07T03:48:52;2.80;99.90
72440;DHT22;60446;50.752;4.352;2024-03-07T03:51:19;2.80;99.90
72440;DHT22;60446;50.752;4.352;2024-03-07T03:53:49;2.80;99.90
72440;DHT22;60446;50.752;4.352;2024-03-07T03:56:16;2.80;99.90
72440;DHT22;60446;50.752;4.352;2024-03-07T03:58:44;2.80;99.90
72440;DHT22;60446;50.752;4.352;2024-03-07T04:01:11;2.70;99.90
72440;DHT22;60446;50.752;4.352;2024-03-07T04:03:41;2.70;99.90
72440;DHT22;60446;50.752;4.352;2024-03-07T04:06:09;2.70;99.90
72440;DHT22;60446;50.752;4.352;2024-03-07T04:08:36;2.70;99.90
72440;DHT22;60446;50.752;4.352;2024-03-07T04:11:04;2.60;99.90
72440;DHT22;60446;50.752;4.352;2024-03-07T04:13:32;2.70;99.90
72440;DHT22;60446;50.752;4.352;2024-03-07T04:15:59;2.60;99.90
72440;DHT22;60446;50.752;4.352;2024-03-07T04:18:26;2.60;99.90
72440;DHT22;60446;50.752;4.352;2024-03-07T04:20:53;2.60;99.90
72440;DHT22;60446;50.752;4.352;2024-03-07T04:23:22;2.60;99.90
72440;DHT22;60446;50.752;4.352;2024-03-07T04:25:49;2.60;99.90
72440;DHT22;60446;50.752;4.352;2024-03-07T04:28:17;2.60;99.90
72440;DHT22;60446;50.752;4.352;2024-03-07T04:30:44;2.60;99.90
72440;DHT22;60446;50.752;4.352;2024-03-07T04:33:11;2.60;99.90
72440;DHT22;60446;50.752;4.352;2024-03-07T04:35:39;2.60;99.90
72440;DHT22;60446;50.752;4.352;2024-03-07T04:38:06;2.60;99.90
72440;DHT22;60446;50.752;4.352;2024-03-07T04:40:38;2.60;99.90
72440;DHT22;60446;50.752;4.352;2024-03-07T04:43:06;2.50;99.90
72440;DHT22;60446;50.752;4.352;2024-03-07T04:45:33;2.50;99.90
72440;DHT22;60446;50.752;4.352;2024-03-07T04:48:01;2.50;99.90
72440;DHT22;60446;50.752;4.352;2024-03-07T04:50:28;2.40;99.90
72440;DHT22;60446;50.752;4.352;2024-03-07T04:52:56;2.50;99.90
72440;DHT22;60446;50.752;4.352;2024-03-07T04:55:23;2.50;99.90
72440;DHT22;60446;50.752;4.352;2024-03-07T04:57:50;2.50;99.90
72440;DHT22;60446;50.752;4.352;2024-03-07T05:00:18;2.50;99.90
72440;DHT22;60446;50.752;4.352;2024-03-07T05:02:48;2.40;99.90
72440;DHT22;60446;50.752;4.352;2024-03-07T05:05:18;2.50;99.90
72440;DHT22;60446;50.752;4.352;2024-03-07T05:07:50;2.50;99.90
72440;DHT22;60446;50.752;4.352;2024-03-07T05:10:18;2.50;99.90
72440;DHT22;60446;50.752;4.352;2024-03-07T05:12:46;2.50;99.90
72440;DHT22;60446;50.752;4.352;2024-03-07T05:15:13;2.50;99.90
72440;DHT22;60446;50.752;4.352;2024-03-07T05:17:40;2.50;99.90
72440;DHT22;60446;50.752;4.352;2024-03-07T05:20:10;2.50;99.90
72440;DHT22;60446;50.752;4.352;2024-03-07T05:22:39;2.50;99.90
72440;DHT22;60446;50.752;4.352;2024-03-07T05:25:11;2.50;99.90
72440;DHT22;60446;50.752;4.352;2024-03-07T05:27:39;2.60;99.90
72440;DHT22;60446;50.752;4.352;2024-03-07T05:30:06;2.60;99.90
72440;DHT22;60446;50.752;4.352;2024-03-07T05:32:37;2.60;99.90
72440;DHT22;60446;50.752;4.352;2024-03-07T05:35:08;2.50;99.90
72440;DHT22;60446;50.752;4.352;2024-03-07T05:37:35;2.50;99.90
72440;DHT22;60446;50.752;4.352;2024-03-07T05:40:03;2.50;99.90
72440;DHT22;60446;50.752;4.352;2024-03-07T05:42:31;2.40;99.90
72440;DHT22;60446;50.752;4.352;2024-03-07T05:44:59;2.40;99.90
72440;DHT22;60446;50.752;4.352;2024-03-07T05:47:26;2.50;99.90
72440;DHT22;60446;50.752;4.352;2024-03-07T05:49:54;2.50;99.90
72440;DHT22;60446;50.752;4.352;2024-03-07T05:52:21;2.60;99.90
72440;DHT22;60446;50.752;4.352;2024-03-07T05:54:49;2.60;99.90
72440;DHT22;60446;50.752;4.352;2024-03-07T05:57:16;2.70;99.90
72440;DHT22;60446;50.752;4.352;2024-03-07T05:59:43;2.80;99.90
72440;DHT22;60446;50.752;4.352;2024-03-07T06:02:13;3.00;99.90
72440;DHT22;60446;50.752;4.352;2024-03-07T06:04:43;3.00;99.90
72440;DHT22;60446;50.752;4.352;2024-03-07T06:07:10;3.10;99.90
72440;DHT22;60446;50.752;4.352;2024-03-07T06:09:39;3.10;99.90
72440;DHT22;60446;50.752;4.352;2024-03-07T06:12:06;3.10;99.90
72440;DHT22;60446;50.752;4.352;2024-03-07T06:14:48;3.20;99.90
72440;DHT22;60446;50.752;4.352;2024-03-07T06:17:16;3.20;99.90
72440;DHT22;60446;50.752;4.352;2024-03-07T06:19:49;3.20;99.90
72440;DHT22;60446;50.752;4.352;2024-03-07T06:22:16;3.20;99.90
72440;DHT22;60446;50.752;4.352;2024-03-07T06:24:44;3.20;99.90
72440;DHT22;60446;50.752;4.352;2024-03-07T06:27:11;3.20;99.90
72440;DHT22;60446;50.752;4.352;2024-03-07T06:29:53;3.20;99.90
72440;DHT22;60446;50.752;4.352;2024-03-07T06:32:22;3.30;99.90
72440;DHT22;60446;50.752;4.352;2024-03-07T06:34:51;3.30;99.90
72440;DHT22;60446;50.752;4.352;2024-03-07T06:37:18;3.30;99.90
72440;DHT22;60446;50.752;4.352;2024-03-07T06:39:46;3.30;99.90
72440;DHT22;60446;50.752;4.352;2024-03-07T06:42:13;3.30;99.90
72440;DHT22;60446;50.752;4.352;2024-03-07T06:44:43;3.40;99.90
72440;DHT22;60446;50.752;4.352;2024-03-07T06:47:10;3.40;99.90
72440;DHT22;60446;50.752;4.352;2024-03-07T06:49:38;3.40;99.90
72440;DHT22;60446;50.752;4.352;2024-03-07T06:52:07;3.40;99.90
72440;DHT22;60446;50.752;4.352;2024-03-07T06:54:35;3.40;99.90
72440;DHT22;60446;50.752;4.352;2024-03-07T06:57:04;3.40;99.90
72440;DHT22;60446;50.752;4.352;2024-03-07T06:59:31;3.50;99.90
72440;DHT22;60446;50.752;4.352;2024-03-07T07:01:58;3.60;99.90
72440;DHT22;60446;50.752;4.352;2024-03-07T07:04:26;3.60;99.90
72440;DHT22;60446;50.752;4.352;2024-03-07T07:06:59;3.70;99.90
72440;DHT22;60446;50.752;4.352;2024-03-07T07:09:28;3.60;99.90
72440;DHT22;60446;50.752;4.352;2024-03-07T07:11:55;3.70;99.90
72440;DHT22;60446;50.752;4.352;2024-03-07T07:14:22;3.70;99.90
72440;DHT22;60446;50.752;4.352;2024-03-07T07:16:50;3.70;99.90
72440;DHT22;60446;50.752;4.352;2024-03-07T07:19:17;3.70;99.90
72440;DHT22;60446;50.752;4.352;2024-03-07T07:21:47;3.70;99.90
72440;DHT22;60446;50.752;4.352;2024-03-07T07:24:16;3.80;99.90
72440;DHT22;60446;50.752;4.352;2024-03-07T07:26:43;3.70;99.90
72440;DHT22;60446;50.752;4.352;2024-03-07T07:29:11;3.70;99.90
72440;DHT22;60446;50.752;4.352;2024-03-07T07:31:38;3.70;99.90
72440;DHT22;60446;50.752;4.352;2024-03-07T07:34:06;3.70;99.90
72440;DHT22;60446;50.752;4.352;2024-03-07T07:36:33;3.80;99.90
72440;DHT22;60446;50.752;4.352;2024-03-07T07:39:01;3.90;99.90
72440;DHT22;60446;50.752;4.352;2024-03-07T07:41:29;3.90;99.90
72440;DHT22;60446;50.752;4.352;2024-03-07T07:43:57;4.00;99.90
72440;DHT22;60446;50.752;4.352;2024-03-07T07:46:25;4.00;99.90
72440;DHT22;60446;50.752;4.352;2024-03-07T07:48:52;4.10;99.90
72440;DHT22;60446;50.752;4.352;2024-03-07T07:51:20;4.20;99.90
72440;DHT22;60446;50.752;4.352;2024-03-07T07:53:47;4.20;99.90
72440;DHT22;60446;50.752;4.352;2024-03-07T07:56:14;4.30;99.90
72440;DHT22;60446;50.752;4.352;2024-03-07T07:58:43;4.40;99.90
72440;DHT22;60446;50.752;4.352;2024-03-07T08:01:10;4.40;99.90
72440;DHT22;60446;50.752;4.352;2024-03-07T08:03:38;4.50;99.90
72440;DHT22;60446;50.752;4.352;2024-03-07T08:06:07;4.60;99.90
72440;DHT22;60446;50.752;4.352;2024-03-07T08:08:34;4.70;99.90
72440;DHT22;60446;50.752;4.352;2024-03-07T08:11:02;4.80;99.90
72440;DHT22;60446;50.752;4.352;2024-03-07T08:13:29;4.90;99.90
72440;DHT22;60446;50.752;4.352;2024-03-07T08:15:57;5.00;99.90
72440;DHT22;60446;50.752;4.352;2024-03-07T08:18:24;4.90;99.90
72440;DHT22;60446;50.752;4.352;2024-03-07T08:20:51;5.10;99.90
72440;DHT22;60446;50.752;4.352;2024-03-07T08:23:22;5.10;99.90
72440;DHT22;60446;50.752;4.352;2024-03-07T08:25:52;5.20;99.90
72440;DHT22;60446;50.752;4.352;2024-03-07T08:28:20;5.20;99.90
72440;DHT22;60446;50.752;4.352;2024-03-07T08:30:47;5.30;99.90
72440;DHT22;60446;50.752;4.352;2024-03-07T08:33:14;5.30;99.90
72440;DHT22;60446;50.752;4.352;2024-03-07T08:35:42;5.30;99.90
72440;DHT22;60446;50.752;4.352;2024-03-07T08:38:09;5.30;99.90
72440;DHT22;60446;50.752;4.352;2024-03-07T08:40:37;5.20;99.90
72440;DHT22;60446;50.752;4.352;2024-03-07T08:43:04;5.20;99.90
72440;DHT22;60446;50.752;4.352;2024-03-07T08:45:34;5.20;99.90
72440;DHT22;60446;50.752;4.352;2024-03-07T08:48:03;5.30;99.90
72440;DHT22;60446;50.752;4.352;2024-03-07T08:50:32;5.30;99.90
72440;DHT22;60446;50.752;4.352;2024-03-07T08:53:01;5.30;99.90
72440;DHT22;60446;50.752;4.352;2024-03-07T08:55:31;5.30;99.90
72440;DHT22;60446;50.752;4.352;2024-03-07T08:57:59;5.20;99.90
72440;DHT22;60446;50.752;4.352;2024-03-07T09:00:26;5.20;99.90
72440;DHT22;60446;50.752;4.352;2024-03-07T09:02:58;5.20;99.90
72440;DHT22;60446;50.752;4.352;2024-03-07T09:05:30;5.30;99.90
72440;DHT22;60446;50.752;4.352;2024-03-07T09:08:01;5.40;99.90
72440;DHT22;60446;50.752;4.352;2024-03-07T09:10:30;5.40;99.90
72440;DHT22;60446;50.752;4.352;2024-03-07T09:12:58;5.30;99.90
72440;DHT22;60446;50.752;4.352;2024-03-07T09:15:26;5.40;99.90
72440;DHT22;60446;50.752;4.352;2024-03-07T09:17:54;5.50;99.90
72440;DHT22;60446;50.752;4.352;2024-03-07T09:20:23;5.50;99.90
72440;DHT22;60446;50.752;4.352;2024-03-07T09:22:51;5.60;99.90
72440;DHT22;60446;50.752;4.352;2024-03-07T09:25:21;5.60;99.90
72440;DHT22;60446;50.752;4.352;2024-03-07T09:27:49;5.60;99.90
72440;DHT22;60446;50.752;4.352;2024-03-07T09:30:17;5.70;99.90
72440;DHT22;60446;50.752;4.352;2024-03-07T09:32:52;5.80;99.90
72440;DHT22;60446;50.752;4.352;2024-03-07T09:35:22;6.00;99.90
72440;DHT22;60446;50.752;4.352;2024-03-07T09:37:50;6.00;99.90
72440;DHT22;60446;50.752;4.352;2024-03-07T09:40:17;5.90;99.90
72440;DHT22;60446;50.752;4.352;2024-03-07T09:42:49;5.80;99.90
72440;DHT22;60446;50.752;4.352;2024-03-07T09:45:20;5.80;99.90
72440;DHT22;60446;50.752;4.352;2024-03-07T09:47:50;5.80;99.90
72440;DHT22;60446;50.752;4.352;2024-03-07T09:50:21;5.80;99.90
72440;DHT22;60446;50.752;4.352;2024-03-07T09:52:52;6.00;99.90
72440;DHT22;60446;50.752;4.352;2024-03-07T09:55:22;6.10;99.90
72440;DHT22;60446;50.752;4.352;2024-03-07T09:57:54;6.30;99.90
72440;DHT22;60446;50.752;4.352;2024-03-07T10:00:25;6.40;99.90
72440;DHT22;60446;50.752;4.352;2024-03-07T10:02:58;6.30;99.90
72440;DHT22;60446;50.752;4.352;2024-03-07T10:05:30;6.30;99.90
72440;DHT22;60446;50.752;4.352;2024-03-07T10:07:59;6.30;99.90
72440;DHT22;60446;50.752;4.352;2024-03-07T10:10:27;6.40;99.90
72440;DHT22;60446;50.752;4.352;2024-03-07T10:12:57;6.30;99.90
72440;DHT22;60446;50.752;4.352;2024-03-07T10:15:33;6.30;99.90
72440;DHT22;60446;50.752;4.352;2024-03-07T10:18:02;6.40;99.90
72440;DHT22;60446;50.752;4.352;2024-03-07T10:20:30;6.50;99.90
72440;DHT22;60446;50.752;4.352;2024-03-07T10:22:57;6.50;99.90
72440;DHT22;60446;50.752;4.352;2024-03-07T10:25:24;6.40;99.90
72440;DHT22;60446;50.752;4.352;2024-03-07T10:27:53;6.40;99.90
72440;DHT22;60446;50.752;4.352;2024-03-07T10:30:21;6.50;99.90
72440;DHT22;60446;50.752;4.352;2024-03-07T10:32:58;6.60;99.90
72440;DHT22;60446;50.752;4.352;2024-03-07T10:35:28;6.80;99.90
72440;DHT22;60446;50.752;4.352;2024-03-07T10:37:58;7.10;99.90
72440;DHT22;60446;50.752;4.352;2024-03-07T10:40:28;7.00;99.90
72440;DHT22;60446;50.752;4.352;2024-03-07T10:42:58;6.90;99.90
72440;DHT22;60446;50.752;4.352;2024-03-07T10:45:30;6.90;99.90
72440;DHT22;60446;50.752;4.352;2024-03-07T10:48:03;7.20;99.90
72440;DHT22;60446;50.752;4.352;2024-03-07T10:58:54;7.60;99.90
72440;DHT22;60446;50.752;4.352;2024-03-07T11:01:31;7.70;99.90
72440;DHT22;60446;50.752;4.352;2024-03-07T11:04:01;7.70;99.90
72440;DHT22;60446;50.752;4.352;2024-03-07T11:06:33;7.90;99.90
72440;DHT22;60446;50.752;4.352;2024-03-07T11:09:03;8.00;99.90
72440;DHT22;60446;50.752;4.352;2024-03-07T11:11:38;8.10;99.90
72440;DHT22;60446;50.752;4.352;2024-03-07T11:14:11;8.10;99.90
72440;DHT22;60446;50.752;4.352;2024-03-07T11:16:40;8.10;99.90
72440;DHT22;60446;50.752;4.352;2024-03-07T11:19:26;8.20;99.90
72440;DHT22;60446;50.752;4.352;2024-03-07T11:21:55;8.40;99.90
72440;DHT22;60446;50.752;4.352;2024-03-07T11:24:30;8.30;99.90
72440;DHT22;60446;50.752;4.352;2024-03-07T11:27:04;8.20;99.90
72440;DHT22;60446;50.752;4.352;2024-03-07T11:29:45;8.20;99.90
72440;DHT22;60446;50.752;4.352;2024-03-07T11:32:15;8.30;99.90
72440;DHT22;60446;50.752;4.352;2024-03-07T11:34:46;8.40;99.90
72440;DHT22;60446;50.752;4.352;2024-03-07T11:37:38;8.60;99.90
72440;DHT22;60446;50.752;4.352;2024-03-07T11:42:53;9.30;99.90
72440;DHT22;60446;50.752;4.352;2024-03-07T11:45:23;9.70;99.90
72440;DHT22;60446;50.752;4.352;2024-03-07T11:47:57;9.90;99.90
72440;DHT22;60446;50.752;4.352;2024-03-07T11:50:27;9.80;99.90
72440;DHT22;60446;50.752;4.352;2024-03-07T11:52:56;9.80;99.90
72440;DHT22;60446;50.752;4.352;2024-03-07T11:55:23;10.00;99.90
72440;DHT22;60446;50.752;4.352;2024-03-07T11:57:51;10.10;99.90
72440;DHT22;60446;50.752;4.352;2024-03-07T12:00:19;10.10;99.90
72440;DHT22;60446;50.752;4.352;2024-03-07T12:02:53;10.10;99.90
72440;DHT22;60446;50.752;4.352;2024-03-07T12:05:21;10.10;99.90
72440;DHT22;60446;50.752;4.352;2024-03-07T12:07:48;10.20;99.90
72440;DHT22;60446;50.752;4.352;2024-03-07T12:10:16;10.30;99.90
72440;DHT22;60446;50.752;4.352;2024-03-07T12:12:52;10.20;99.90
72440;DHT22;60446;50.752;4.352;2024-03-07T12:15:19;10.20;99.90
72440;DHT22;60446;50.752;4.352;2024-03-07T12:17:47;10.00;99.90
72440;DHT22;60446;50.752;4.352;2024-03-07T12:20:17;9.70;99.90
72440;DHT22;60446;50.752;4.352;2024-03-07T12:23:04;9.30;99.90
72440;DHT22;60446;50.752;4.352;2024-03-07T12:25:35;9.20;99.90
72440;DHT22;60446;50.752;4.352;2024-03-07T12:28:07;9.10;99.90
72440;DHT22;60446;50.752;4.352;2024-03-07T12:30:48;9.00;99.90
72440;DHT22;60446;50.752;4.352;2024-03-07T12:33:21;8.90;99.90
72440;DHT22;60446;50.752;4.352;2024-03-07T12:35:54;8.80;99.90
72440;DHT22;60446;50.752;4.352;2024-03-07T12:38:33;8.70;99.90
72440;DHT22;60446;50.752;4.352;2024-03-07T12:41:05;8.80;99.90
72440;DHT22;60446;50.752;4.352;2024-03-07T12:43:35;9.00;99.90
72440;DHT22;60446;50.752;4.352;2024-03-07T12:46:04;9.20;99.90
72440;DHT22;60446;50.752;4.352;2024-03-07T12:48:32;9.50;99.90
72440;DHT22;60446;50.752;4.352;2024-03-07T12:51:00;9.80;99.90
72440;DHT22;60446;50.752;4.352;2024-03-07T12:53:28;9.80;99.90
72440;DHT22;60446;50.752;4.352;2024-03-07T12:55:57;10.10;99.90
72440;DHT22;60446;50.752;4.352;2024-03-07T12:58:24;10.20;99.90
72440;DHT22;60446;50.752;4.352;2024-03-07T13:00:53;10.20;99.90
72440;DHT22;60446;50.752;4.352;2024-03-07T13:03:25;10.30;99.90
72440;DHT22;60446;50.752;4.352;2024-03-07T13:06:02;10.60;99.90
72440;DHT22;60446;50.752;4.352;2024-03-07T13:08:32;10.80;99.90
72440;DHT22;60446;50.752;4.352;2024-03-07T13:10:59;10.90;99.90
72440;DHT22;60446;50.752;4.352;2024-03-07T13:13:28;11.00;99.90
72440;DHT22;60446;50.752;4.352;2024-03-07T13:15:55;11.00;99.90
72440;DHT22;60446;50.752;4.352;2024-03-07T13:18:23;11.20;99.90
72440;DHT22;60446;50.752;4.352;2024-03-07T13:20:52;11.30;99.90
72440;DHT22;60446;50.752;4.352;2024-03-07T13:23:19;11.40;99.90
72440;DHT22;60446;50.752;4.352;2024-03-07T13:25:46;11.40;99.70
72440;DHT22;60446;50.752;4.352;2024-03-07T13:28:15;11.30;99.90
72440;DHT22;60446;50.752;4.352;2024-03-07T13:30:44;11.10;99.80
72440;DHT22;60446;50.752;4.352;2024-03-07T13:33:16;11.10;99.90
72440;DHT22;60446;50.752;4.352;2024-03-07T13:35:44;11.30;99.90
72440;DHT22;60446;50.752;4.352;2024-03-07T13:38:12;10.80;99.10
72440;DHT22;60446;50.752;4.352;2024-03-07T13:40:40;10.50;99.20
72440;DHT22;60446;50.752;4.352;2024-03-07T13:43:08;10.00;98.40
72440;DHT22;60446;50.752;4.352;2024-03-07T13:45:36;9.80;99.90
72440;DHT22;60446;50.752;4.352;2024-03-07T13:48:09;9.70;99.90
72440;DHT22;60446;50.752;4.352;2024-03-07T13:50:40;9.90;99.80
72440;DHT22;60446;50.752;4.352;2024-03-07T13:53:11;10.00;99.90
72440;DHT22;60446;50.752;4.352;2024-03-07T14:04:03;10.10;99.90
72440;DHT22;60446;50.752;4.352;2024-03-07T14:07:31;10.00;99.90
72440;DHT22;60446;50.752;4.352;2024-03-07T14:32:13;9.90;99.90
72440;DHT22;60446;50.752;4.352;2024-03-07T14:37:39;10.00;98.80
72440;DHT22;60446;50.752;4.352;2024-03-07T14:40:17;9.90;98.70
72440;DHT22;60446;50.752;4.352;2024-03-07T14:42:47;10.00;99.90
72440;DHT22;60446;50.752;4.352;2024-03-07T14:45:22;10.20;99.30
72440;DHT22;60446;50.752;4.352;2024-03-07T14:47:54;10.30;99.10
72440;DHT22;60446;50.752;4.352;2024-03-07T14:50:22;10.30;98.30
72440;DHT22;60446;50.752;4.352;2024-03-07T14:52:51;10.40;98.20
72440;DHT22;60446;50.752;4.352;2024-03-07T14:55:19;10.40;97.80
72440;DHT22;60446;50.752;4.352;2024-03-07T14:57:47;10.30;97.50
72440;DHT22;60446;50.752;4.352;2024-03-07T15:00:15;10.30;98.60
72440;DHT22;60446;50.752;4.352;2024-03-07T15:02:49;10.30;96.30
72440;DHT22;60446;50.752;4.352;2024-03-07T15:05:17;10.30;97.50
72440;DHT22;60446;50.752;4.352;2024-03-07T15:07:46;10.20;97.30
72440;DHT22;60446;50.752;4.352;2024-03-07T15:10:24;10.10;98.50
72440;DHT22;60446;50.752;4.352;2024-03-07T15:12:55;10.20;98.00
72440;DHT22;60446;50.752;4.352;2024-03-07T15:15:25;10.20;98.10
72440;DHT22;60446;50.752;4.352;2024-03-07T15:17:55;10.20;98.40
72440;DHT22;60446;50.752;4.352;2024-03-07T15:20:22;10.20;97.10
72440;DHT22;60446;50.752;4.352;2024-03-07T15:22:54;10.10;97.80
72440;DHT22;60446;50.752;4.352;2024-03-07T15:25:23;10.20;99.80
72440;DHT22;60446;50.752;4.352;2024-03-07T15:27:52;10.10;98.50
72440;DHT22;60446;50.752;4.352;2024-03-07T15:30:24;9.90;97.30
72440;DHT22;60446;50.752;4.352;2024-03-07T15:32:51;9.70;95.70
72440;DHT22;60446;50.752;4.352;2024-03-07T15:35:20;9.50;96.40
72440;DHT22;60446;50.752;4.352;2024-03-07T15:37:50;9.40;97.70
72440;DHT22;60446;50.752;4.352;2024-03-07T15:40:18;9.40;99.00
72440;DHT22;60446;50.752;4.352;2024-03-07T15:42:48;9.40;97.20
72440;DHT22;60446;50.752;4.352;2024-03-07T15:45:24;9.30;98.30
72440;DHT22;60446;50.752;4.352;2024-03-07T15:47:53;9.20;97.40
72440;DHT22;60446;50.752;4.352;2024-03-07T15:50:32;9.20;98.50
72440;DHT22;60446;50.752;4.352;2024-03-07T15:52:59;9.30;98.10
72440;DHT22;60446;50.752;4.352;2024-03-07T15:55:27;9.50;98.50
72440;DHT22;60446;50.752;4.352;2024-03-07T15:57:59;9.60;95.90
72440;DHT22;60446;50.752;4.352;2024-03-07T16:00:31;9.60;95.30
72440;DHT22;60446;50.752;4.352;2024-03-07T16:03:05;9.50;95.60
72440;DHT22;60446;50.752;4.352;2024-03-07T16:05:41;9.60;97.80
72440;DHT22;60446;50.752;4.352;2024-03-07T16:08:15;9.40;97.70
72440;DHT22;60446;50.752;4.352;2024-03-07T16:10:45;9.30;97.80
72440;DHT22;60446;50.752;4.352;2024-03-07T16:13:15;9.20;99.00
72440;DHT22;60446;50.752;4.352;2024-03-07T16:15:44;8.90;98.30
72440;DHT22;60446;50.752;4.352;2024-03-07T16:18:14;8.70;99.00
72440;DHT22;60446;50.752;4.352;2024-03-07T16:20:44;8.60;99.30
72440;DHT22;60446;50.752;4.352;2024-03-07T16:23:14;8.60;99.50
72440;DHT22;60446;50.752;4.352;2024-03-07T16:25:43;8.60;99.90
72440;DHT22;60446;50.752;4.352;2024-03-07T16:28:11;8.60;99.90
72440;DHT22;60446;50.752;4.352;2024-03-07T16:30:39;8.50;99.40
72440;DHT22;60446;50.752;4.352;2024-03-07T16:33:14;8.50;99.90
72440;DHT22;60446;50.752;4.352;2024-03-07T16:35:45;8.30;99.90
72440;DHT22;60446;50.752;4.352;2024-03-07T16:38:13;8.30;99.90
72440;DHT22;60446;50.752;4.352;2024-03-07T16:40:41;8.20;99.90
72440;DHT22;60446;50.752;4.352;2024-03-07T16:43:10;8.10;99.90